Time;durP1;ratioP1;P1;durP2;ratioP2;P2;SDS_P1;SDS_P2;PMS_P1;PMS_P2;Temp;Humidity;BMP_temperature;BMP_pressure;BME280_temperature;BME280_humidity;BME280_pressure;Samples;Min_cycle;Max_cycle;Signal;HPM_P1;HPM_P2
2023/08/09 00:00:08;;;;;;;27.03;5.77;;;26.20;55.70;;;;;;5024237;28;20201;-82
2023/08/09 00:02:35;;;;;;;29.53;5.47;;;26.10;55.60;;;;;;5025565;28;20575;-82
2023/08/09 00:05:02;;;;;;;27.77;5.30;;;26.10;55.60;;;;;;5026678;28;20204;-82
2023/08/09 00:07:30;;;;;;;31.27;5.80;;;26.10;55.60;;;;;;5024253;28;20201;-82
2023/08/09 00:09:57;;;;;;;22.83;5.20;;;26.10;55.70;;;;;;5026390;28;20207;-81
2023/08/09 00:12:24;;;;;;;37.80;6.47;;;26.10;55.60;;;;;;5024743;28;20291;-82
2023/08/09 00:14:52;;;;;;;32.20;5.73;;;26.10;55.70;;;;;;5020032;28;20201;-82
2023/08/09 00:17:19;;;;;;;25.63;5.27;;;26.10;55.70;;;;;;5031315;28;20233;-82
2023/08/09 00:19:46;;;;;;;28.63;5.63;;;26.10;55.70;;;;;;5025074;28;20249;-82
2023/08/09 00:22:13;;;;;;;24.13;5.20;;;26.10;56.30;;;;;;5026431;28;20636;-81
2023/08/09 00:24:41;;;;;;;45.63;7.20;;;26.00;55.60;;;;;;5025151;28;20205;-81
2023/08/09 00:27:07;;;;;;;21.77;4.77;;;26.10;55.70;;;;;;5031691;27;20208;-82
2023/08/09 00:29:34;;;;;;;20.37;4.93;;;26.00;55.70;;;;;;5045592;28;20295;-82
2023/08/09 00:32:03;;;;;;;23.57;5.03;;;26.00;55.70;;;;;;5023078;28;20232;-82
2023/08/09 00:34:30;;;;;;;42.13;6.80;;;26.00;55.70;;;;;;5025249;28;20324;-82
2023/08/09 00:36:57;;;;;;;25.13;5.07;;;26.00;55.80;;;;;;5026004;28;20277;-82
2023/08/09 00:39:25;;;;;;;25.40;5.30;;;26.00;55.80;;;;;;5026453;28;20267;-82
2023/08/09 00:41:52;;;;;;;22.73;4.97;;;26.00;55.80;;;;;;5025653;28;20192;-81
2023/08/09 00:44:19;;;;;;;22.03;5.03;;;26.00;56.00;;;;;;5026390;28;20288;-82
2023/08/09 00:46:46;;;;;;;22.30;5.00;;;26.00;55.80;;;;;;5025182;28;20200;-82
2023/08/09 00:49:15;;;;;;;23.80;4.87;;;26.00;55.80;;;;;;5031019;28;20293;-80
2023/08/09 00:51:42;;;;;;;30.93;5.90;;;26.00;55.80;;;;;;5025339;28;20586;-81
2023/08/09 00:54:09;;;;;;;23.57;4.93;;;26.00;55.80;;;;;;5023875;28;20304;-82
2023/08/09 00:56:36;;;;;;;27.30;5.43;;;26.00;55.80;;;;;;5023248;28;20701;-81
2023/08/09 00:59:03;;;;;;;29.53;5.67;;;26.00;55.80;;;;;;5025993;28;20232;-81
2023/08/09 01:01:30;;;;;;;67.90;8.83;;;26.00;55.80;;;;;;5111189;27;20245;-81
2023/08/09 01:03:57;;;;;;;28.13;5.37;;;26.00;55.80;;;;;;5026229;28;20284;-81
2023/08/09 01:06:32;;;;;;;29.30;5.53;;;26.00;55.80;;;;;;5024135;28;20207;-82
2023/08/09 01:09:07;;;;;;;28.83;5.60;;;26.00;55.80;;;;;;5026029;28;20271;-82
2023/08/09 01:11:45;;;;;;;28.37;5.57;;;26.00;55.80;;;;;;5025184;28;20878;-82
2023/08/09 01:14:13;;;;;;;22.67;4.97;;;26.00;55.80;;;;;;5024354;28;20296;-82
2023/08/09 01:16:41;;;;;;;31.50;5.93;;;26.00;55.80;;;;;;5025837;28;20197;-81
2023/08/09 01:19:15;;;;;;;24.20;5.40;;;25.90;55.80;;;;;;5033635;28;20250;-81
2023/08/09 01:21:46;;;;;;;48.03;7.30;;;25.90;55.70;;;;;;5042470;28;20301;-81
2023/08/09 01:24:15;;;;;;;33.73;5.87;;;25.90;55.80;;;;;;5008798;28;20279;-80
2023/08/09 01:26:42;;;;;;;26.30;5.60;;;25.90;55.70;;;;;;5023554;28;20234;-81
2023/08/09 01:29:09;;;;;;;27.57;5.40;;;25.90;55.70;;;;;;5025383;28;20227;-81
2023/08/09 01:31:36;;;;;;;31.23;5.53;;;25.90;55.70;;;;;;5025682;28;20284;-81
2023/08/09 01:34:04;;;;;;;48.47;7.13;;;25.90;55.70;;;;;;5019863;28;20205;-81
2023/08/09 01:36:36;;;;;;;25.67;5.20;;;25.90;55.70;;;;;;5024281;28;20212;-81
2023/08/09 01:39:06;;;;;;;27.20;5.03;;;25.90;55.80;;;;;;5024326;28;20244;-81
2023/08/09 01:41:35;;;;;;;25.77;5.27;;;25.90;55.70;;;;;;5025018;28;20291;-82
2023/08/09 01:44:04;;;;;;;26.63;5.07;;;25.90;55.70;;;;;;5025363;28;20273;-81
2023/08/09 01:46:32;;;;;;;34.60;5.80;;;25.90;55.70;;;;;;5023947;28;20296;-82
2023/08/09 01:49:10;;;;;;;31.07;5.57;;;25.90;55.70;;;;;;5023230;28;20209;-82
2023/08/09 01:51:38;;;;;;;26.33;5.30;;;25.90;55.70;;;;;;5043583;28;20212;-81
2023/08/09 01:54:06;;;;;;;32.37;5.83;;;25.90;55.70;;;;;;5023732;28;20200;-83
2023/08/09 01:56:35;;;;;;;26.53;5.03;;;25.90;55.80;;;;;;5024744;28;20291;-82
2023/08/09 01:59:04;;;;;;;25.20;4.93;;;25.80;55.70;;;;;;5025237;28;20335;-82
2023/08/09 02:01:31;;;;;;;25.70;5.13;;;25.80;55.70;;;;;;5119134;27;20685;-83
2023/08/09 02:03:58;;;;;;;26.17;5.10;;;25.80;55.70;;;;;;5023598;28;20519;-82
2023/08/09 02:06:25;;;;;;;22.93;4.90;;;25.80;55.80;;;;;;5034350;28;20207;-82
2023/08/09 02:08:52;;;;;;;29.27;5.30;;;25.80;55.80;;;;;;5034257;28;20782;-83
2023/08/09 02:11:18;;;;;;;30.60;5.60;;;25.80;55.80;;;;;;5025175;28;20277;-83
2023/08/09 02:13:47;;;;;;;21.23;4.83;;;25.80;55.80;;;;;;5024356;28;20197;-83
2023/08/09 02:16:14;;;;;;;24.87;5.23;;;25.80;55.80;;;;;;5024763;28;20211;-81
2023/08/09 02:18:42;;;;;;;30.53;5.67;;;25.80;55.90;;;;;;5024982;28;20296;-83
2023/08/09 02:21:10;;;;;;;30.07;5.40;;;25.80;55.90;;;;;;5017007;28;20635;-82
2023/08/09 02:23:37;;;;;;;27.00;5.17;;;25.80;55.90;;;;;;5022235;28;20717;-82
2023/08/09 02:26:05;;;;;;;33.93;6.23;;;25.80;55.90;;;;;;5023794;28;20209;-81
2023/08/09 02:28:32;;;;;;;24.67;5.00;;;25.80;55.90;;;;;;5023119;28;20212;-81
2023/08/09 02:31:00;;;;;;;31.37;5.70;;;25.70;55.90;;;;;;5024989;28;20213;-81
2023/08/09 02:33:28;;;;;;;26.03;5.33;;;25.70;56.50;;;;;;5026173;28;20249;-82
2023/08/09 02:35:56;;;;;;;18.60;4.47;;;25.70;55.90;;;;;;5027025;28;20362;-81
2023/08/09 02:38:25;;;;;;;27.03;5.20;;;25.70;55.90;;;;;;5021411;28;20315;-81
2023/08/09 02:40:53;;;;;;;23.73;4.83;;;25.70;55.90;;;;;;5028059;28;20211;-81
2023/08/09 02:43:21;;;;;;;24.17;4.90;;;25.70;55.90;;;;;;5027592;28;20680;-81
2023/08/09 02:45:48;;;;;;;18.90;4.40;;;25.70;55.90;;;;;;5026493;28;20289;-81
2023/08/09 02:48:16;;;;;;;26.87;5.60;;;25.70;55.90;;;;;;5025635;28;20240;-83
2023/08/09 02:50:43;;;;;;;43.63;6.67;;;25.70;56.00;;;;;;5026736;28;20739;-82
2023/08/09 02:53:11;;;;;;;34.87;5.83;;;25.70;56.00;;;;;;5026884;28;20567;-82
2023/08/09 02:55:38;;;;;;;31.10;6.03;;;25.70;56.00;;;;;;5038565;28;20207;-82
2023/08/09 02:58:06;;;;;;;27.80;5.30;;;25.70;56.00;;;;;;5027489;28;20244;-82
2023/08/09 03:00:34;;;;;;;32.33;5.87;;;25.70;56.00;;;;;;5026786;28;20205;-82
2023/08/09 03:03:04;;;;;;;25.97;5.17;;;25.70;56.00;;;;;;5027635;28;20664;-82
2023/08/09 03:05:32;;;;;;;22.30;5.03;;;25.70;56.00;;;;;;5027036;27;20212;-82
2023/08/09 03:08:00;;;;;;;39.90;6.47;;;25.60;56.00;;;;;;5024610;28;20227;-82
2023/08/09 03:10:27;;;;;;;19.37;4.77;;;25.60;56.00;;;;;;5024510;28;20776;-81
2023/08/09 03:12:54;;;;;;;24.70;4.87;;;25.60;56.00;;;;;;5026114;28;20234;-82
2023/08/09 03:15:23;;;;;;;33.27;5.63;;;25.60;56.00;;;;;;5027456;28;20277;-80
2023/08/09 03:17:50;;;;;;;22.60;4.50;;;25.70;56.10;;;;;;5025129;28;20208;-83
2023/08/09 03:20:18;;;;;;;26.20;5.20;;;25.60;56.00;;;;;;5024809;28;20609;-83
2023/08/09 03:22:47;;;;;;;24.37;4.87;;;25.60;56.00;;;;;;5024977;28;20738;-83
2023/08/09 03:25:17;;;;;;;23.93;4.63;;;25.60;56.10;;;;;;5024272;28;20236;-83
2023/08/09 03:27:44;;;;;;;41.23;6.50;;;25.60;56.10;;;;;;5041487;28;20270;-83
2023/08/09 03:30:12;;;;;;;29.10;5.17;;;25.60;56.10;;;;;;5025250;28;20237;-83
2023/08/09 03:32:40;;;;;;;24.33;4.80;;;25.60;56.10;;;;;;5027401;28;20205;-83
2023/08/09 03:35:09;;;;;;;27.40;5.20;;;25.60;56.10;;;;;;5025678;28;20643;-84
2023/08/09 03:37:36;;;;;;;27.83;5.13;;;25.60;56.10;;;;;;5025560;28;20328;-83
2023/08/09 03:40:07;;;;;;;34.67;5.53;;;25.60;56.10;;;;;;5026755;28;20241;-84
2023/08/09 03:42:34;;;;;;;28.07;4.97;;;25.60;56.10;;;;;;5026570;28;20205;-82
2023/08/09 03:45:01;;;;;;;26.83;4.97;;;25.60;56.10;;;;;;5025758;28;20676;-82
2023/08/09 03:47:28;;;;;;;31.83;5.27;;;25.60;56.20;;;;;;5027223;28;20280;-83
2023/08/09 03:49:55;;;;;;;42.73;6.60;;;25.60;56.10;;;;;;5026427;28;20265;-83
2023/08/09 03:52:22;;;;;;;24.27;4.67;;;25.60;56.10;;;;;;5026738;28;20312;-82
2023/08/09 03:54:52;;;;;;;36.00;5.87;;;25.60;56.10;;;;;;5024590;27;20313;-83
2023/08/09 03:57:21;;;;;;;24.03;4.60;;;25.60;56.20;;;;;;5011698;28;20201;-82
2023/08/09 03:59:50;;;;;;;20.90;4.33;;;25.60;56.20;;;;;;5026714;28;20228;-83
2023/08/09 04:02:17;;;;;;;27.97;5.10;;;25.50;56.10;;;;;;5025112;28;20215;-83
2023/08/09 04:04:45;;;;;;;61.17;8.23;;;25.60;56.20;;;;;;5024096;28;20211;-81
2023/08/09 04:07:12;;;;;;;22.87;4.87;;;25.60;56.20;;;;;;5042140;28;20291;-82
2023/08/09 04:09:39;;;;;;;35.47;5.93;;;25.60;56.20;;;;;;5046300;28;20204;-82
2023/08/09 04:12:08;;;;;;;22.00;4.67;;;25.50;56.10;;;;;;5041348;28;20300;-82
2023/08/09 04:14:36;;;;;;;30.80;5.67;;;25.60;56.30;;;;;;5026365;28;20714;-82
2023/08/09 04:17:04;;;;;;;27.17;5.20;;;25.50;56.10;;;;;;5025774;28;20557;-81
2023/08/09 04:19:31;;;;;;;21.83;4.60;;;25.50;56.20;;;;;;5025712;28;20237;-82
2023/08/09 04:21:58;;;;;;;27.97;5.37;;;25.50;56.20;;;;;;5031091;28;20283;-83
2023/08/09 04:24:25;;;;;;;26.37;5.03;;;25.60;56.30;;;;;;5045450;28;20196;-82
2023/08/09 04:26:53;;;;;;;28.57;5.23;;;25.60;56.30;;;;;;5024746;28;20935;-82
2023/08/09 04:29:20;;;;;;;25.07;5.27;;;25.50;56.20;;;;;;5024841;28;20201;-83
2023/08/09 04:31:49;;;;;;;27.17;5.03;;;25.50;56.20;;;;;;5026282;28;20287;-82
2023/08/09 04:34:16;;;;;;;32.80;5.87;;;25.50;56.20;;;;;;5024426;28;20219;-82
2023/08/09 04:36:42;;;;;;;28.93;5.33;;;25.50;56.20;;;;;;5018531;28;20288;-82
2023/08/09 04:39:10;;;;;;;24.70;5.13;;;25.50;56.30;;;;;;5040780;28;20319;-82
2023/08/09 04:41:37;;;;;;;30.43;5.63;;;25.60;56.30;;;;;;5025604;28;20200;-82
2023/08/09 04:44:05;;;;;;;19.83;4.80;;;25.60;56.30;;;;;;5026186;28;20295;-81
2023/08/09 04:46:32;;;;;;;19.20;4.53;;;25.50;56.30;;;;;;5024852;28;20208;-79
2023/08/09 04:49:00;;;;;;;23.50;4.77;;;25.60;56.30;;;;;;5025481;28;20657;-79
2023/08/09 04:51:28;;;;;;;24.47;5.10;;;25.50;56.30;;;;;;5026412;28;20299;-78
2023/08/09 04:53:55;;;;;;;25.87;5.00;;;25.50;56.30;;;;;;5034639;28;20266;-78
2023/08/09 04:56:22;;;;;;;25.43;4.97;;;25.50;56.30;;;;;;5030951;28;20344;-78
2023/08/09 04:58:50;;;;;;;46.10;6.57;;;25.50;56.30;;;;;;5023892;28;20213;-79
2023/08/09 05:01:17;;;;;;;25.60;5.13;;;25.50;56.30;;;;;;5011529;28;20200;-78
2023/08/09 05:03:44;;;;;;;22.87;4.73;;;25.50;56.30;;;;;;5024510;27;20305;-78
2023/08/09 05:06:12;;;;;;;27.17;5.23;;;25.50;56.30;;;;;;5024612;28;20684;-79
2023/08/09 05:08:39;;;;;;;38.47;6.07;;;25.50;56.30;;;;;;5023002;28;20209;-78
2023/08/09 05:11:06;;;;;;;26.20;4.93;;;25.60;56.40;;;;;;5021646;28;20201;-78
2023/08/09 05:13:33;;;;;;;42.00;6.40;;;25.50;56.30;;;;;;5023965;28;20821;-78
2023/08/09 05:16:00;;;;;;;31.40;5.63;;;25.60;56.50;;;;;;5023079;27;20258;-79
2023/08/09 05:18:27;;;;;;;56.47;7.63;;;25.50;56.40;;;;;;5023960;28;20189;-79
2023/08/09 05:20:54;;;;;;;43.70;6.43;;;25.50;56.40;;;;;;5023236;28;20299;-78
2023/08/09 05:23:22;;;;;;;30.07;5.37;;;25.50;56.40;;;;;;5024042;28;20201;-81
2023/08/09 05:25:49;;;;;;;24.37;4.67;;;25.50;56.40;;;;;;5039856;27;20300;-78
2023/08/09 05:28:16;;;;;;;27.93;4.97;;;25.50;56.40;;;;;;5023507;28;20295;-79
2023/08/09 05:30:43;;;;;;;31.23;5.37;;;25.50;56.40;;;;;;5024309;27;20288;-81
2023/08/09 05:33:10;;;;;;;25.33;4.80;;;25.50;56.40;;;;;;5023200;28;20291;-80
2023/08/09 05:35:37;;;;;;;26.80;5.00;;;25.50;56.40;;;;;;5024815;28;20236;-81
2023/08/09 05:38:04;;;;;;;40.37;6.50;;;25.50;56.40;;;;;;5022628;28;20790;-81
2023/08/09 05:40:32;;;;;;;23.97;4.70;;;25.50;56.40;;;;;;5024897;28;20225;-81
2023/08/09 05:42:59;;;;;;;30.10;5.37;;;25.50;56.40;;;;;;5024089;28;20676;-79
2023/08/09 05:45:27;;;;;;;24.17;4.67;;;25.50;56.40;;;;;;5025277;28;20359;-79
2023/08/09 05:47:54;;;;;;;29.50;5.23;;;25.50;56.40;;;;;;5021938;28;20252;-80
2023/08/09 05:50:21;;;;;;;23.80;4.67;;;25.50;56.40;;;;;;5024750;28;20735;-79
2023/08/09 05:52:48;;;;;;;43.67;6.77;;;25.50;56.40;;;;;;5023027;28;20280;-79
2023/08/09 05:55:15;;;;;;;27.03;4.80;;;25.50;56.50;;;;;;5023635;28;20201;-79
2023/08/09 05:57:43;;;;;;;26.37;5.03;;;25.50;56.40;;;;;;5023684;28;20577;-80
2023/08/09 06:00:15;;;;;;;24.03;4.60;;;25.50;57.10;;;;;;5025355;28;20313;-78
2023/08/09 06:02:43;;;;;;;18.97;4.47;;;25.50;56.50;;;;;;5024006;28;20664;-78
2023/08/09 06:05:14;;;;;;;27.77;5.07;;;25.50;56.50;;;;;;5026730;28;20665;-79
2023/08/09 06:07:41;;;;;;;33.30;5.67;;;25.50;56.50;;;;;;5024866;28;20205;-81
2023/08/09 06:10:08;;;;;;;27.27;5.00;;;25.50;56.40;;;;;;5025222;28;20230;-82
2023/08/09 06:12:35;;;;;;;28.93;5.20;;;25.40;56.40;;;;;;5026498;28;20283;-81
2023/08/09 06:15:04;;;;;;;41.57;6.60;;;25.50;56.50;;;;;;5031295;27;20219;-82
2023/08/09 06:17:31;;;;;;;19.53;4.23;;;25.50;56.50;;;;;;5028145;28;20744;-81
2023/08/09 06:19:59;;;;;;;24.47;4.80;;;25.50;56.50;;;;;;5026717;28;20232;-80
2023/08/09 06:22:25;;;;;;;33.47;5.63;;;25.50;56.50;;;;;;5028079;28;20679;-81
2023/08/09 06:24:52;;;;;;;24.83;4.77;;;25.50;56.50;;;;;;5028105;28;20661;-82
2023/08/09 06:27:19;;;;;;;32.97;5.93;;;25.40;56.40;;;;;;5029394;27;20212;-81
2023/08/09 06:29:46;;;;;;;26.20;4.97;;;25.50;57.20;;;;;;5027976;27;20203;-82
2023/08/09 06:32:15;;;;;;;25.97;4.97;;;25.50;56.50;;;;;;5023393;27;20204;-81
2023/08/09 06:34:42;;;;;;;23.07;4.53;;;25.50;56.50;;;;;;5031231;27;20291;-80
2023/08/09 06:37:09;;;;;;;29.43;5.57;;;25.40;56.50;;;;;;5028497;28;20320;-81
2023/08/09 06:39:36;;;;;;;22.70;4.77;;;25.50;56.60;;;;;;5020996;27;20238;-81
2023/08/09 06:42:03;;;;;;;20.97;4.17;;;25.50;56.60;;;;;;5028399;28;20732;-82
2023/08/09 06:44:30;;;;;;;36.17;6.07;;;25.50;56.60;;;;;;5025451;28;20203;-80
2023/08/09 06:46:57;;;;;;;24.30;4.47;;;25.50;56.60;;;;;;5023087;28;20292;-80
2023/08/09 06:49:26;;;;;;;50.57;7.20;;;25.50;56.60;;;;;;5028743;27;20208;-80
2023/08/09 06:51:52;;;;;;;26.73;5.77;;;25.50;56.70;;;;;;5023545;28;20639;-82
2023/08/09 06:54:19;;;;;;;45.23;7.27;;;25.50;56.70;;;;;;5030097;28;20287;-77
2023/08/09 06:56:45;;;;;;;28.57;6.30;;;25.50;57.30;;;;;;5028915;27;20291;-77
2023/08/09 06:59:13;;;;;;;27.63;6.20;;;25.60;56.80;;;;;;5028348;28;20260;-81
2023/08/09 07:01:40;;;;;;;38.93;6.77;;;25.50;56.80;;;;;;5026790;28;20688;-78
2023/08/09 07:04:07;;;;;;;32.77;7.03;;;25.60;57.00;;;;;;5022832;28;20287;-78
2023/08/09 07:06:36;;;;;;;73.20;10.00;;;25.60;56.90;;;;;;5022672;27;20861;-80
2023/08/09 07:09:02;;;;;;;36.03;6.33;;;25.60;57.00;;;;;;5039584;28;20288;-83
2023/08/09 07:11:29;;;;;;;21.80;4.90;;;25.60;57.50;;;;;;5032358;28;20619;-85
2023/08/09 07:13:56;;;;;;;27.23;5.50;;;25.60;57.00;;;;;;5026940;28;20311;-82
2023/08/09 07:16:23;;;;;;;28.17;5.43;;;25.70;57.00;;;;;;5031053;27;20228;-82
2023/08/09 07:18:50;;;;;;;33.87;6.07;;;25.60;56.90;;;;;;5026364;28;20296;-78
2023/08/09 07:21:17;;;;;;;51.90;7.53;;;25.70;57.00;;;;;;5026136;28;20196;-77
2023/08/09 07:23:46;;;;;;;36.60;6.60;;;25.70;56.90;;;;;;5026531;28;20201;-79
2023/08/09 07:26:13;;;;;;;34.37;6.33;;;25.70;56.90;;;;;;5026676;28;20215;-81
2023/08/09 07:28:40;;;;;;;39.10;6.53;;;25.70;56.90;;;;;;5026049;28;20314;-77
2023/08/09 07:31:17;;;;;;;38.23;6.40;;;25.70;57.00;;;;;;5027142;28;20232;-77
2023/08/09 07:33:44;;;;;;;40.20;6.77;;;25.70;57.00;;;;;;5026624;28;20205;-80
2023/08/09 07:36:11;;;;;;;23.57;5.00;;;25.80;57.00;;;;;;5022848;28;20328;-78
2023/08/09 07:38:38;;;;;;;35.93;6.33;;;25.80;57.00;;;;;;5025177;28;20729;-78
2023/08/09 07:41:07;;;;;;;32.13;6.20;;;25.80;57.00;;;;;;5026219;28;20235;-77
2023/08/09 07:43:34;;;;;;;30.00;5.90;;;25.80;57.00;;;;;;5025746;28;20215;-81
2023/08/09 07:46:04;;;;;;;35.23;6.17;;;25.80;57.00;;;;;;5026511;28;20216;-84
2023/08/09 07:48:31;;;;;;;40.60;6.90;;;25.80;57.00;;;;;;5007128;28;20228;-84
2023/08/09 07:50:58;;;;;;;29.73;5.53;;;25.80;57.00;;;;;;5025531;28;20241;-84
2023/08/09 07:53:25;;;;;;;52.30;7.43;;;25.90;57.00;;;;;;5031226;28;20204;-84
2023/08/09 07:55:52;;;;;;;31.07;5.87;;;25.90;57.10;;;;;;5025758;28;20262;-84
2023/08/09 07:58:20;;;;;;;35.20;6.20;;;25.90;57.00;;;;;;5026204;28;20204;-84
2023/08/09 08:00:47;;;;;;;32.77;6.13;;;25.90;57.00;;;;;;5025329;28;20225;-77
2023/08/09 08:03:14;;;;;;;34.20;6.33;;;25.90;57.10;;;;;;5026499;28;20244;-78
2023/08/09 08:05:41;;;;;;;37.50;6.63;;;25.90;57.00;;;;;;5025606;27;20208;-77
2023/08/09 08:08:08;;;;;;;32.03;6.23;;;25.90;57.10;;;;;;5023756;28;20204;-77
2023/08/09 08:10:35;;;;;;;35.93;6.73;;;25.90;57.10;;;;;;5031526;28;20204;-78
2023/08/09 08:13:02;;;;;;;33.17;6.17;;;26.00;57.30;;;;;;5025496;28;20211;-78
2023/08/09 08:15:30;;;;;;;27.77;5.90;;;26.00;57.30;;;;;;5024354;28;20193;-83
2023/08/09 08:17:57;;;;;;;27.67;5.70;;;26.00;57.30;;;;;;5025922;28;20291;-85
2023/08/09 08:20:24;;;;;;;32.87;6.20;;;26.00;57.30;;;;;;5025872;28;20205;-79
2023/08/09 08:22:51;;;;;;;42.90;6.90;;;26.00;57.30;;;;;;5023947;28;20293;-78
2023/08/09 08:25:20;;;;;;;38.37;6.43;;;26.10;57.40;;;;;;5040627;28;20305;-81
2023/08/09 08:27:48;;;;;;;26.67;5.50;;;26.10;57.40;;;;;;5033904;28;20636;-83
2023/08/09 08:30:16;;;;;;;32.97;5.97;;;26.10;57.40;;;;;;5025306;28;20276;-83
2023/08/09 08:32:45;;;;;;;30.10;5.87;;;26.10;57.50;;;;;;5026238;28;20250;-79
2023/08/09 08:35:13;;;;;;;33.73;6.10;;;26.10;57.40;;;;;;5025638;28;20215;-81
2023/08/09 08:37:41;;;;;;;31.73;6.03;;;26.20;57.40;;;;;;5026083;28;20229;-79
2023/08/09 08:40:14;;;;;;;30.33;6.07;;;26.20;57.40;;;;;;5023868;28;20229;-79
2023/08/09 08:42:43;;;;;;;24.67;5.23;;;26.20;57.40;;;;;;5025505;28;20223;-84
2023/08/09 08:45:11;;;;;;;39.90;6.67;;;26.30;58.10;;;;;;5022280;28;20208;-80
2023/08/09 08:47:40;;;;;;;34.70;6.17;;;26.30;57.50;;;;;;5024247;28;20197;-76
2023/08/09 08:50:09;;;;;;;32.10;5.87;;;26.30;57.50;;;;;;5025915;27;20215;-80
2023/08/09 08:52:40;;;;;;;23.10;5.03;;;26.30;57.50;;;;;;5023792;28;20219;-77
2023/08/09 08:55:09;;;;;;;45.67;7.07;;;26.40;57.60;;;;;;5022510;28;20287;-81
2023/08/09 08:57:37;;;;;;;30.40;5.93;;;26.40;57.60;;;;;;5040346;28;20236;-75
2023/08/09 09:00:08;;;;;;;34.00;5.80;;;26.40;57.60;;;;;;5031381;28;20228;-73
2023/08/09 09:02:35;;;;;;;26.60;5.47;;;26.40;57.60;;;;;;5005670;28;20255;-74
2023/08/09 09:05:03;;;;;;;27.27;5.23;;;26.50;57.60;;;;;;5005875;28;20632;-73
2023/08/09 09:08:24;;;;;;;35.87;6.17;;;26.50;57.10;;;;;;5054204;28;20724;-79
2023/08/09 09:10:54;;;;;;;47.63;7.67;;;26.50;57.50;;;;;;5040835;28;20200;-80
2023/08/09 09:13:26;;;;;;;37.77;6.50;;;26.60;57.50;;;;;;5024623;28;20205;-81
2023/08/09 09:15:55;;;;;;;30.13;6.10;;;26.60;57.60;;;;;;5040194;28;20261;-80
2023/08/09 09:18:22;;;;;;;32.83;6.23;;;26.60;57.50;;;;;;5044421;28;20731;-80
2023/08/09 09:20:51;;;;;;;39.80;7.10;;;26.60;57.50;;;;;;5042024;28;20287;-82
2023/08/09 09:23:31;;;;;;;47.07;7.33;;;26.60;57.40;;;;;;5042455;28;20657;-82
2023/08/09 09:26:08;;;;;;;30.77;6.07;;;26.70;57.60;;;;;;5043286;28;20351;-81
2023/08/09 09:28:41;;;;;;;29.33;6.47;;;26.70;57.50;;;;;;5042794;28;20610;-81
2023/08/09 09:31:08;;;;;;;38.33;6.77;;;26.70;58.00;;;;;;5045070;28;20188;-79
2023/08/09 09:33:36;;;;;;;22.53;5.27;;;26.80;57.50;;;;;;5043259;28;20733;-80
2023/08/09 09:36:05;;;;;;;46.10;7.87;;;26.80;57.50;;;;;;5043500;28;20331;-78
2023/08/09 09:38:33;;;;;;;38.07;6.77;;;26.80;57.50;;;;;;5040603;28;20636;-78
2023/08/09 09:41:02;;;;;;;29.73;6.00;;;26.80;57.50;;;;;;5043665;28;20295;-79
2023/08/09 09:43:33;;;;;;;24.10;5.60;;;26.80;57.50;;;;;;5043767;28;20315;-79
2023/08/09 09:46:00;;;;;;;36.23;6.57;;;26.90;57.60;;;;;;5044657;28;20192;-78
2023/08/09 09:48:28;;;;;;;33.47;6.73;;;26.90;57.50;;;;;;5043076;28;20319;-79
2023/08/09 09:50:55;;;;;;;31.97;6.30;;;26.90;57.50;;;;;;5043468;28;20305;-79
2023/08/09 09:53:22;;;;;;;44.67;7.27;;;27.00;57.50;;;;;;5041881;28;20612;-79
2023/08/09 09:55:51;;;;;;;40.07;6.70;;;27.00;57.50;;;;;;5042884;28;20288;-79
2023/08/09 09:58:18;;;;;;;39.23;6.70;;;27.00;57.60;;;;;;5043577;28;20358;-78
2023/08/09 10:00:48;;;;;;;27.63;5.57;;;27.10;57.60;;;;;;5043655;28;20291;-79
2023/08/09 10:03:18;;;;;;;40.47;6.83;;;27.10;57.50;;;;;;5043331;28;20227;-79
2023/08/09 10:05:47;;;;;;;29.27;5.90;;;27.10;57.40;;;;;;5043088;28;20886;-80
2023/08/09 10:08:16;;;;;;;48.90;7.73;;;27.20;57.50;;;;;;5041093;28;21872;-79
2023/08/09 10:10:45;;;;;;;30.00;6.33;;;27.20;57.50;;;;;;5028990;28;20298;-79
2023/08/09 10:13:21;;;;;;;32.90;6.13;;;27.30;57.50;;;;;;5044213;28;20188;-78
2023/08/09 10:15:53;;;;;;;26.83;5.53;;;27.30;57.50;;;;;;5043961;28;20199;-79
2023/08/09 10:18:24;;;;;;;26.83;5.70;;;27.30;57.50;;;;;;5037693;28;20224;-79
2023/08/09 10:20:56;;;;;;;22.63;5.37;;;27.40;58.00;;;;;;5030662;28;20262;-79
2023/08/09 10:23:24;;;;;;;28.83;6.03;;;27.40;57.40;;;;;;5030337;28;20229;-80
2023/08/09 10:25:53;;;;;;;30.43;5.77;;;27.50;57.40;;;;;;5029884;28;20201;-78
2023/08/09 10:28:47;;;;;;;26.07;5.80;;;27.60;57.40;;;;;;5030436;28;20229;-78
2023/08/09 10:31:14;;;;;;;33.40;6.17;;;27.60;57.40;;;;;;5030398;28;20208;-82
2023/08/09 10:33:43;;;;;;;91.37;11.33;;;27.60;57.40;;;;;;5026204;28;20204;-79
2023/08/09 10:36:13;;;;;;;46.90;8.17;;;27.70;57.30;;;;;;5025720;28;20259;-82
2023/08/09 10:38:41;;;;;;;56.43;8.50;;;27.80;57.30;;;;;;5024574;28;20220;-77
2023/08/09 10:41:11;;;;;;;31.60;6.37;;;27.80;57.20;;;;;;5029218;28;20208;-74
2023/08/09 10:43:43;;;;;;;29.90;5.60;;;27.90;57.20;;;;;;5029160;28;20205;-77
2023/08/09 10:46:20;;;;;;;31.13;6.53;;;28.00;57.20;;;;;;5030238;28;20291;-69
2023/08/09 10:48:50;;;;;;;35.13;6.63;;;28.00;57.20;;;;;;5022595;28;20247;-84
2023/08/09 10:51:19;;;;;;;43.60;7.00;;;28.20;57.20;;;;;;5029286;28;20189;-80
2023/08/09 10:53:56;;;;;;;52.33;8.33;;;28.30;57.20;;;;;;5028971;28;20229;-73
2023/08/09 10:56:34;;;;;;;45.17;7.75;;;28.50;57.30;;;;;;5020739;28;20451;-76
2023/08/09 10:59:07;;;;;;;23.70;5.37;;;28.60;58.20;;;;;;5028816;28;20197;-78
2023/08/09 11:01:35;;;;;;;28.87;6.17;;;28.70;57.70;;;;;;5027614;28;20203;-78
2023/08/09 11:04:02;;;;;;;27.53;6.50;;;28.90;57.50;;;;;;5029075;28;20197;-75
2023/08/09 11:06:33;;;;;;;31.60;6.30;;;29.10;57.20;;;;;;5027515;28;20213;-74
2023/08/09 11:09:08;;;;;;;27.53;5.67;;;29.30;56.90;;;;;;5029579;28;20196;-76
2023/08/09 11:11:35;;;;;;;25.93;5.60;;;29.30;56.50;;;;;;5029403;28;20222;-77
2023/08/09 11:14:03;;;;;;;34.83;6.37;;;29.40;56.40;;;;;;5028103;28;20208;-78
2023/08/09 11:16:32;;;;;;;40.63;7.07;;;29.50;56.50;;;;;;5024738;28;20200;-77
2023/08/09 11:19:04;;;;;;;25.17;5.87;;;29.60;56.30;;;;;;5026316;28;20681;-77
2023/08/09 11:21:41;;;;;;;51.00;7.90;;;29.60;56.00;;;;;;5028107;28;20288;-77
2023/08/09 11:24:09;;;;;;;87.93;10.93;;;29.60;55.80;;;;;;5014481;28;20303;-77
2023/08/09 11:26:37;;;;;;;40.80;7.50;;;29.60;55.80;;;;;;5014997;28;20538;-79
2023/08/09 11:29:05;;;;;;;40.77;7.00;;;29.60;55.80;;;;;;5023134;28;20205;-76
2023/08/09 11:31:34;;;;;;;31.93;6.33;;;29.50;56.00;;;;;;5024651;28;20569;-77
2023/08/09 11:34:01;;;;;;;49.07;7.93;;;29.60;55.90;;;;;;5025479;28;21007;-78
2023/08/09 11:36:29;;;;;;;25.67;5.57;;;29.60;55.90;;;;;;5023181;28;20708;-74
2023/08/09 11:38:57;;;;;;;31.67;6.20;;;29.60;55.80;;;;;;5023621;28;20205;-81
2023/08/09 11:41:25;;;;;;;43.20;7.17;;;29.50;55.80;;;;;;5021098;28;20209;-81
2023/08/09 11:43:52;;;;;;;42.57;7.03;;;29.50;55.80;;;;;;5022848;28;20560;-77
2023/08/09 11:46:21;;;;;;;37.00;6.93;;;29.50;55.80;;;;;;5026168;28;20230;-77
2023/08/09 11:48:51;;;;;;;25.70;5.27;;;29.40;55.70;;;;;;5027620;28;20692;-80
2023/08/09 11:51:19;;;;;;;26.67;5.67;;;29.40;55.60;;;;;;5027189;28;20204;-76
2023/08/09 11:53:50;;;;;;;29.97;5.70;;;29.40;55.80;;;;;;5027664;28;20700;-80
2023/08/09 11:56:22;;;;;;;29.37;5.80;;;29.30;55.70;;;;;;5025360;28;20197;-80
2023/08/09 11:58:52;;;;;;;38.13;6.90;;;29.30;55.80;;;;;;5027047;28;20201;-75
2023/08/09 12:01:21;;;;;;;36.43;6.47;;;29.30;55.90;;;;;;5027167;28;20342;-74
2023/08/09 12:03:51;;;;;;;31.40;6.50;;;29.30;55.90;;;;;;5027134;28;20208;-78
2023/08/09 12:06:19;;;;;;;22.67;5.57;;;29.20;55.80;;;;;;5027511;28;20767;-74
2023/08/09 12:08:46;;;;;;;35.93;6.40;;;29.20;56.00;;;;;;5026623;28;20224;-82
2023/08/09 12:11:17;;;;;;;23.00;5.77;;;29.20;56.00;;;;;;5026417;28;20209;-80
2023/08/09 12:13:44;;;;;;;28.00;5.60;;;29.20;56.00;;;;;;5028533;28;20585;-74
2023/08/09 12:16:11;;;;;;;31.70;6.23;;;29.20;56.00;;;;;;5028150;28;20203;-81
2023/08/09 12:18:38;;;;;;;30.87;6.07;;;29.10;55.90;;;;;;5027972;28;20222;-80
2023/08/09 12:21:07;;;;;;;31.93;6.57;;;29.10;56.00;;;;;;5023177;28;20224;-74
2023/08/09 12:23:38;;;;;;;21.97;6.00;;;29.10;56.00;;;;;;5026725;28;20201;-79
2023/08/09 12:26:07;;;;;;;34.73;7.20;;;29.10;56.20;;;;;;5027027;28;20240;-81
2023/08/09 12:28:34;;;;;;;30.33;6.67;;;29.10;56.20;;;;;;5028064;28;20327;-76
2023/08/09 12:31:01;;;;;;;27.97;6.40;;;29.00;56.30;;;;;;5027312;28;20802;-81
2023/08/09 12:33:28;;;;;;;31.87;6.50;;;29.00;56.40;;;;;;5010047;28;20284;-82
2023/08/09 12:35:55;;;;;;;28.03;6.27;;;29.00;56.50;;;;;;5018297;28;20630;-79
2023/08/09 12:38:24;;;;;;;26.90;6.57;;;29.00;56.50;;;;;;5026372;28;20292;-77
2023/08/09 12:40:51;;;;;;;35.43;6.67;;;29.00;56.60;;;;;;5025466;28;20208;-76